sensor_id;sensor_type;location;lat;lon;timestamp;pressure;altitude;pressure_sealevel;temperature;humidity
58622;BME280;44389;51.578;5.456;2022-09-11T00:00:14;101647.88;;;11.72;100.00
58622;BME280;44389;51.578;5.456;2022-09-11T00:02:40;101650.25;;;11.66;100.00
58622;BME280;44389;51.578;5.456;2022-09-11T00:05:06;101657.50;;;11.53;100.00
58622;BME280;44389;51.578;5.456;2022-09-11T00:07:31;101649.66;;;11.50;100.00
58622;BME280;44389;51.578;5.456;2022-09-11T00:09:56;101648.66;;;11.47;100.00
58622;BME280;44389;51.578;5.456;2022-09-11T00:12:21;101644.53;;;11.52;100.00
58622;BME280;44389;51.578;5.456;2022-09-11T00:14:47;101640.13;;;11.49;100.00
58622;BME280;44389;51.578;5.456;2022-09-11T00:17:12;101637.81;;;11.56;100.00
58622;BME280;44389;51.578;5.456;2022-09-11T00:19:41;101651.78;;;11.40;100.00
58622;BME280;44389;51.578;5.456;2022-09-11T00:22:06;101650.47;;;11.49;100.00
58622;BME280;44389;51.578;5.456;2022-09-11T00:24:32;101650.13;;;11.40;100.00
58622;BME280;44389;51.578;5.456;2022-09-11T00:26:57;101640.19;;;11.51;100.00
58622;BME280;44389;51.578;5.456;2022-09-11T00:29:22;101649.75;;;11.53;100.00
58622;BME280;44389;51.578;5.456;2022-09-11T00:31:47;101655.03;;;11.57;100.00
58622;BME280;44389;51.578;5.456;2022-09-11T00:34:13;101649.75;;;11.53;100.00
58622;BME280;44389;51.578;5.456;2022-09-11T00:36:38;101648.19;;;11.57;100.00
58622;BME280;44389;51.578;5.456;2022-09-11T00:39:06;101650.75;;;11.57;100.00
58622;BME280;44389;51.578;5.456;2022-09-11T00:41:33;101654.91;;;11.53;100.00
58622;BME280;44389;51.578;5.456;2022-09-11T00:46:45;101656.34;;;11.45;100.00
58622;BME280;44389;51.578;5.456;2022-09-11T00:49:35;101662.41;;;11.47;100.00
58622;BME280;44389;51.578;5.456;2022-09-11T00:52:21;101662.25;;;11.43;100.00
58622;BME280;44389;51.578;5.456;2022-09-11T00:54:51;101658.31;;;11.52;100.00
58622;BME280;44389;51.578;5.456;2022-09-11T00:57:19;101661.19;;;11.38;100.00
58622;BME280;44389;51.578;5.456;2022-09-11T00:59:48;101667.53;;;11.46;100.00
58622;BME280;44389;51.578;5.456;2022-09-11T01:02:18;101662.38;;;11.46;100.00
58622;BME280;44389;51.578;5.456;2022-09-11T01:04:44;101669.91;;;11.41;100.00
58622;BME280;44389;51.578;5.456;2022-09-11T01:07:12;101666.66;;;11.45;100.00
58622;BME280;44389;51.578;5.456;2022-09-11T01:09:38;101677.03;;;11.47;100.00
58622;BME280;44389;51.578;5.456;2022-09-11T01:12:06;101670.31;;;11.50;100.00
58622;BME280;44389;51.578;5.456;2022-09-11T01:20:21;101682.31;;;11.50;100.00
58622;BME280;44389;51.578;5.456;2022-09-11T01:28:31;101677.84;;;11.46;100.00
58622;BME280;44389;51.578;5.456;2022-09-11T01:31:05;101679.72;;;11.50;100.00
58622;BME280;44389;51.578;5.456;2022-09-11T01:33:45;101676.84;;;11.42;100.00
58622;BME280;44389;51.578;5.456;2022-09-11T01:36:19;101677.75;;;11.43;100.00
58622;BME280;44389;51.578;5.456;2022-09-11T01:38:55;101683.13;;;11.49;100.00
58622;BME280;44389;51.578;5.456;2022-09-11T01:41:51;101683.97;;;11.48;100.00
58622;BME280;44389;51.578;5.456;2022-09-11T01:44:26;101688.88;;;11.42;100.00
58622;BME280;44389;51.578;5.456;2022-09-11T01:46:54;101692.69;;;11.51;100.00
58622;BME280;44389;51.578;5.456;2022-09-11T01:49:26;101694.84;;;11.41;100.00
58622;BME280;44389;51.578;5.456;2022-09-11T01:51:56;101690.56;;;11.41;100.00
58622;BME280;44389;51.578;5.456;2022-09-11T01:54:26;101693.03;;;11.38;100.00
58622;BME280;44389;51.578;5.456;2022-09-11T01:56:58;101690.78;;;11.25;100.00
58622;BME280;44389;51.578;5.456;2022-09-11T01:59:31;101695.88;;;11.02;100.00
58622;BME280;44389;51.578;5.456;2022-09-11T02:02:03;101695.34;;;10.90;100.00
58622;BME280;44389;51.578;5.456;2022-09-11T02:04:44;101691.03;;;10.89;100.00
58622;BME280;44389;51.578;5.456;2022-09-11T02:07:14;101689.13;;;10.84;100.00
58622;BME280;44389;51.578;5.456;2022-09-11T02:09:45;101686.81;;;10.91;100.00
58622;BME280;44389;51.578;5.456;2022-09-11T02:12:14;101686.44;;;10.81;100.00
58622;BME280;44389;51.578;5.456;2022-09-11T02:14:44;101678.63;;;10.80;100.00
58622;BME280;44389;51.578;5.456;2022-09-11T02:19:42;101688.47;;;10.89;100.00
58622;BME280;44389;51.578;5.456;2022-09-11T02:22:07;101693.63;;;10.89;100.00
58622;BME280;44389;51.578;5.456;2022-09-11T02:24:33;101695.44;;;10.91;100.00
58622;BME280;44389;51.578;5.456;2022-09-11T02:27:05;101700.50;;;10.90;100.00
58622;BME280;44389;51.578;5.456;2022-09-11T02:29:31;101702.44;;;10.94;100.00
58622;BME280;44389;51.578;5.456;2022-09-11T02:31:57;101711.25;;;10.99;100.00
58622;BME280;44389;51.578;5.456;2022-09-11T02:34:26;101708.72;;;11.00;100.00
58622;BME280;44389;51.578;5.456;2022-09-11T02:37:21;101705.19;;;10.98;100.00
58622;BME280;44389;51.578;5.456;2022-09-11T02:45:25;101697.28;;;10.74;100.00
58622;BME280;44389;51.578;5.456;2022-09-11T02:51:07;101706.78;;;10.75;100.00
58622;BME280;44389;51.578;5.456;2022-09-11T02:56:34;101708.28;;;10.70;100.00
58622;BME280;44389;51.578;5.456;2022-09-11T02:59:09;101708.31;;;10.50;100.00
58622;BME280;44389;51.578;5.456;2022-09-11T03:01:47;101712.31;;;10.63;100.00
58622;BME280;44389;51.578;5.456;2022-09-11T03:04:12;101714.69;;;10.59;100.00
58622;BME280;44389;51.578;5.456;2022-09-11T03:06:39;101714.78;;;10.60;100.00
58622;BME280;44389;51.578;5.456;2022-09-11T03:09:08;101716.19;;;10.53;100.00
58622;BME280;44389;51.578;5.456;2022-09-11T03:11:33;101711.69;;;10.49;100.00
58622;BME280;44389;51.578;5.456;2022-09-11T03:13:58;101723.94;;;10.53;100.00
58622;BME280;44389;51.578;5.456;2022-09-11T03:16:23;101721.34;;;10.53;100.00
58622;BME280;44389;51.578;5.456;2022-09-11T03:18:49;101729.09;;;10.53;100.00
58622;BME280;44389;51.578;5.456;2022-09-11T03:21:14;101727.44;;;10.56;100.00
58622;BME280;44389;51.578;5.456;2022-09-11T03:23:40;101720.63;;;10.56;100.00
58622;BME280;44389;51.578;5.456;2022-09-11T03:26:06;101718.34;;;10.44;100.00
58622;BME280;44389;51.578;5.456;2022-09-11T03:28:31;101714.91;;;10.44;100.00
58622;BME280;44389;51.578;5.456;2022-09-11T03:30:58;101721.44;;;10.35;100.00
58622;BME280;44389;51.578;5.456;2022-09-11T03:33:23;101717.63;;;10.29;100.00
58622;BME280;44389;51.578;5.456;2022-09-11T03:35:49;101722.19;;;10.15;100.00
58622;BME280;44389;51.578;5.456;2022-09-11T03:38:14;101719.34;;;10.09;100.00
58622;BME280;44389;51.578;5.456;2022-09-11T03:40:43;101720.88;;;10.05;100.00
58622;BME280;44389;51.578;5.456;2022-09-11T03:43:09;101724.13;;;10.01;100.00
58622;BME280;44389;51.578;5.456;2022-09-11T03:45:35;101727.00;;;10.07;100.00
58622;BME280;44389;51.578;5.456;2022-09-11T03:48:00;101729.69;;;10.10;100.00
58622;BME280;44389;51.578;5.456;2022-09-11T03:50:26;101730.03;;;10.18;100.00
58622;BME280;44389;51.578;5.456;2022-09-11T03:52:52;101736.34;;;10.25;100.00
58622;BME280;44389;51.578;5.456;2022-09-11T03:55:17;101736.16;;;10.20;100.00
58622;BME280;44389;51.578;5.456;2022-09-11T03:57:42;101729.19;;;10.17;100.00
58622;BME280;44389;51.578;5.456;2022-09-11T04:00:08;101726.72;;;10.20;100.00
58622;BME280;44389;51.578;5.456;2022-09-11T04:02:34;101728.59;;;10.43;100.00
58622;BME280;44389;51.578;5.456;2022-09-11T04:04:59;101725.50;;;10.50;100.00
58622;BME280;44389;51.578;5.456;2022-09-11T04:07:24;101729.28;;;10.58;100.00
58622;BME280;44389;51.578;5.456;2022-09-11T04:09:50;101732.47;;;10.52;100.00
58622;BME280;44389;51.578;5.456;2022-09-11T04:12:16;101728.81;;;10.47;100.00
58622;BME280;44389;51.578;5.456;2022-09-11T04:14:41;101735.31;;;10.39;100.00
58622;BME280;44389;51.578;5.456;2022-09-11T04:17:06;101732.16;;;10.27;100.00
58622;BME280;44389;51.578;5.456;2022-09-11T04:19:33;101735.63;;;10.27;100.00
58622;BME280;44389;51.578;5.456;2022-09-11T04:21:58;101730.41;;;10.26;100.00
58622;BME280;44389;51.578;5.456;2022-09-11T04:24:24;101720.22;;;10.29;100.00
58622;BME280;44389;51.578;5.456;2022-09-11T04:26:49;101728.22;;;10.35;100.00
58622;BME280;44389;51.578;5.456;2022-09-11T04:29:14;101726.44;;;10.34;100.00
58622;BME280;44389;51.578;5.456;2022-09-11T04:31:42;101730.47;;;10.27;100.00
58622;BME280;44389;51.578;5.456;2022-09-11T04:34:07;101719.34;;;10.28;100.00
58622;BME280;44389;51.578;5.456;2022-09-11T04:36:33;101722.88;;;10.30;100.00
58622;BME280;44389;51.578;5.456;2022-09-11T04:38:59;101723.88;;;10.34;100.00
58622;BME280;44389;51.578;5.456;2022-09-11T04:41:25;101728.91;;;10.31;100.00
58622;BME280;44389;51.578;5.456;2022-09-11T04:43:55;101740.03;;;10.30;100.00
58622;BME280;44389;51.578;5.456;2022-09-11T04:46:20;101733.19;;;10.30;100.00
58622;BME280;44389;51.578;5.456;2022-09-11T04:48:49;101731.78;;;10.37;100.00
58622;BME280;44389;51.578;5.456;2022-09-11T04:51:23;101739.22;;;10.31;100.00
58622;BME280;44389;51.578;5.456;2022-09-11T04:53:50;101740.81;;;10.29;100.00
58622;BME280;44389;51.578;5.456;2022-09-11T04:56:17;101748.50;;;10.27;100.00
58622;BME280;44389;51.578;5.456;2022-09-11T04:58:44;101738.94;;;10.25;100.00
58622;BME280;44389;51.578;5.456;2022-09-11T05:01:13;101745.72;;;10.23;100.00
58622;BME280;44389;51.578;5.456;2022-09-11T05:03:40;101740.41;;;10.19;100.00
58622;BME280;44389;51.578;5.456;2022-09-11T05:06:06;101736.97;;;10.19;100.00
58622;BME280;44389;51.578;5.456;2022-09-11T05:08:32;101735.94;;;10.15;100.00
58622;BME280;44389;51.578;5.456;2022-09-11T05:11:02;101738.66;;;10.18;100.00
58622;BME280;44389;51.578;5.456;2022-09-11T05:13:30;101742.19;;;10.20;100.00
58622;BME280;44389;51.578;5.456;2022-09-11T05:16:02;101753.53;;;10.24;100.00
58622;BME280;44389;51.578;5.456;2022-09-11T05:18:28;101752.63;;;10.24;100.00
58622;BME280;44389;51.578;5.456;2022-09-11T05:21:04;101760.34;;;10.24;100.00
58622;BME280;44389;51.578;5.456;2022-09-11T05:23:30;101758.97;;;10.30;100.00
58622;BME280;44389;51.578;5.456;2022-09-11T05:25:57;101765.09;;;10.34;100.00
58622;BME280;44389;51.578;5.456;2022-09-11T05:28:24;101770.56;;;10.40;100.00
58622;BME280;44389;51.578;5.456;2022-09-11T05:30:50;101769.09;;;10.45;100.00
58622;BME280;44389;51.578;5.456;2022-09-11T05:33:15;101774.25;;;10.45;100.00
58622;BME280;44389;51.578;5.456;2022-09-11T05:35:41;101776.06;;;10.48;100.00
58622;BME280;44389;51.578;5.456;2022-09-11T05:38:06;101788.28;;;10.52;100.00
58622;BME280;44389;51.578;5.456;2022-09-11T05:40:32;101792.16;;;10.62;100.00
58622;BME280;44389;51.578;5.456;2022-09-11T05:42:57;101794.88;;;10.65;100.00
58622;BME280;44389;51.578;5.456;2022-09-11T05:45:23;101794.19;;;10.69;100.00
58622;BME280;44389;51.578;5.456;2022-09-11T05:47:49;101803.63;;;10.68;100.00
58622;BME280;44389;51.578;5.456;2022-09-11T05:50:14;101800.19;;;10.68;100.00
58622;BME280;44389;51.578;5.456;2022-09-11T05:52:39;101805.69;;;10.76;100.00
58622;BME280;44389;51.578;5.456;2022-09-11T05:55:05;101807.84;;;10.86;100.00
58622;BME280;44389;51.578;5.456;2022-09-11T05:57:30;101807.09;;;10.89;100.00
58622;BME280;44389;51.578;5.456;2022-09-11T05:59:56;101808.84;;;10.90;100.00
58622;BME280;44389;51.578;5.456;2022-09-11T06:02:21;101818.50;;;10.94;100.00
58622;BME280;44389;51.578;5.456;2022-09-11T06:04:46;101821.56;;;10.85;100.00
58622;BME280;44389;51.578;5.456;2022-09-11T06:07:12;101817.66;;;10.95;100.00
58622;BME280;44389;51.578;5.456;2022-09-11T06:09:37;101819.31;;;10.93;100.00
58622;BME280;44389;51.578;5.456;2022-09-11T06:12:02;101831.50;;;10.97;100.00
58622;BME280;44389;51.578;5.456;2022-09-11T06:14:28;101829.47;;;10.90;100.00
58622;BME280;44389;51.578;5.456;2022-09-11T06:16:53;101834.78;;;10.93;100.00
58622;BME280;44389;51.578;5.456;2022-09-11T06:19:21;101840.22;;;10.99;100.00
58622;BME280;44389;51.578;5.456;2022-09-11T06:21:46;101827.22;;;10.97;100.00
58622;BME280;44389;51.578;5.456;2022-09-11T06:24:11;101832.81;;;11.07;100.00
58622;BME280;44389;51.578;5.456;2022-09-11T06:26:37;101843.88;;;11.04;100.00
58622;BME280;44389;51.578;5.456;2022-09-11T06:29:02;101845.91;;;11.11;100.00
58622;BME280;44389;51.578;5.456;2022-09-11T06:31:27;101851.22;;;11.14;100.00
58622;BME280;44389;51.578;5.456;2022-09-11T06:33:54;101846.09;;;11.16;100.00
58622;BME280;44389;51.578;5.456;2022-09-11T06:36:21;101847.94;;;11.18;100.00
58622;BME280;44389;51.578;5.456;2022-09-11T06:38:55;101858.25;;;11.18;100.00
58622;BME280;44389;51.578;5.456;2022-09-11T06:41:21;101856.66;;;11.42;100.00
58622;BME280;44389;51.578;5.456;2022-09-11T06:43:47;101854.09;;;11.42;100.00
58622;BME280;44389;51.578;5.456;2022-09-11T06:46:15;101858.09;;;11.35;100.00
58622;BME280;44389;51.578;5.456;2022-09-11T06:48:42;101856.78;;;11.45;100.00
58622;BME280;44389;51.578;5.456;2022-09-11T06:51:16;101863.81;;;11.49;100.00
58622;BME280;44389;51.578;5.456;2022-09-11T06:53:43;101869.88;;;11.49;100.00
58622;BME280;44389;51.578;5.456;2022-09-11T06:56:10;101867.00;;;11.63;100.00
58622;BME280;44389;51.578;5.456;2022-09-11T06:58:37;101861.97;;;11.66;100.00
58622;BME280;44389;51.578;5.456;2022-09-11T07:01:09;101871.03;;;11.77;100.00
58622;BME280;44389;51.578;5.456;2022-09-11T07:03:35;101865.25;;;11.83;100.00
58622;BME280;44389;51.578;5.456;2022-09-11T07:06:01;101867.88;;;12.06;100.00
58622;BME280;44389;51.578;5.456;2022-09-11T07:08:27;101868.50;;;12.21;100.00
58622;BME280;44389;51.578;5.456;2022-09-11T07:10:53;101873.91;;;12.27;100.00
58622;BME280;44389;51.578;5.456;2022-09-11T07:13:18;101873.75;;;12.45;100.00
58622;BME280;44389;51.578;5.456;2022-09-11T07:15:43;101868.28;;;12.60;100.00
58622;BME280;44389;51.578;5.456;2022-09-11T07:18:12;101870.00;;;12.37;100.00
58622;BME280;44389;51.578;5.456;2022-09-11T07:20:38;101864.94;;;12.40;100.00
58622;BME280;44389;51.578;5.456;2022-09-11T07:23:04;101863.50;;;12.71;100.00
58622;BME280;44389;51.578;5.456;2022-09-11T07:25:29;101865.75;;;12.62;100.00
58622;BME280;44389;51.578;5.456;2022-09-11T07:27:54;101858.22;;;12.68;100.00
58622;BME280;44389;51.578;5.456;2022-09-11T07:30:20;101863.41;;;12.68;100.00
58622;BME280;44389;51.578;5.456;2022-09-11T07:32:45;101865.28;;;12.72;100.00
58622;BME280;44389;51.578;5.456;2022-09-11T07:35:11;101871.84;;;12.87;100.00
58622;BME280;44389;51.578;5.456;2022-09-11T07:37:36;101866.44;;;13.05;100.00
58622;BME280;44389;51.578;5.456;2022-09-11T07:40:03;101868.06;;;13.27;100.00
58622;BME280;44389;51.578;5.456;2022-09-11T07:42:29;101863.13;;;13.33;100.00
58622;BME280;44389;51.578;5.456;2022-09-11T07:44:54;101870.84;;;13.31;100.00
58622;BME280;44389;51.578;5.456;2022-09-11T07:47:20;101864.75;;;13.55;100.00
58622;BME280;44389;51.578;5.456;2022-09-11T07:49:45;101865.19;;;13.95;100.00
58622;BME280;44389;51.578;5.456;2022-09-11T07:52:10;101866.84;;;13.93;100.00
58622;BME280;44389;51.578;5.456;2022-09-11T07:54:36;101866.50;;;13.82;100.00
58622;BME280;44389;51.578;5.456;2022-09-11T07:57:01;101872.69;;;13.86;100.00
58622;BME280;44389;51.578;5.456;2022-09-11T07:59:27;101868.53;;;13.91;100.00
58622;BME280;44389;51.578;5.456;2022-09-11T08:01:52;101873.72;;;13.91;100.00
58622;BME280;44389;51.578;5.456;2022-09-11T08:04:19;101878.09;;;14.21;100.00
58622;BME280;44389;51.578;5.456;2022-09-11T08:06:45;101879.53;;;14.12;100.00
58622;BME280;44389;51.578;5.456;2022-09-11T08:09:12;101882.00;;;14.35;100.00
58622;BME280;44389;51.578;5.456;2022-09-11T08:11:42;101886.47;;;14.68;100.00
58622;BME280;44389;51.578;5.456;2022-09-11T08:14:08;101893.38;;;14.98;100.00
58622;BME280;44389;51.578;5.456;2022-09-11T08:16:38;101890.94;;;15.36;100.00
58622;BME280;44389;51.578;5.456;2022-09-11T08:19:03;101895.91;;;15.28;100.00
58622;BME280;44389;51.578;5.456;2022-09-11T08:21:29;101901.25;;;15.33;100.00
58622;BME280;44389;51.578;5.456;2022-09-11T08:23:54;101898.16;;;15.14;100.00
58622;BME280;44389;51.578;5.456;2022-09-11T08:26:22;101902.31;;;15.41;100.00
58622;BME280;44389;51.578;5.456;2022-09-11T08:28:49;101905.22;;;15.52;100.00
58622;BME280;44389;51.578;5.456;2022-09-11T08:31:18;101902.31;;;15.41;100.00
58622;BME280;44389;51.578;5.456;2022-09-11T08:33:44;101901.91;;;15.26;100.00
58622;BME280;44389;51.578;5.456;2022-09-11T08:36:10;101909.69;;;15.58;100.00
58622;BME280;44389;51.578;5.456;2022-09-11T08:38:37;101908.72;;;15.54;100.00
58622;BME280;44389;51.578;5.456;2022-09-11T08:41:34;101917.31;;;15.52;100.00
58622;BME280;44389;51.578;5.456;2022-09-11T08:46:34;101921.22;;;15.68;100.00
58622;BME280;44389;51.578;5.456;2022-09-11T08:52:04;101920.22;;;15.62;100.00
58622;BME280;44389;51.578;5.456;2022-09-11T08:54:32;101926.50;;;15.72;100.00
58622;BME280;44389;51.578;5.456;2022-09-11T09:02:51;101915.09;;;15.99;100.00
58622;BME280;44389;51.578;5.456;2022-09-11T09:05:53;101916.59;;;16.26;100.00
58622;BME280;44389;51.578;5.456;2022-09-11T09:13:52;101926.13;;;17.05;100.00
58622;BME280;44389;51.578;5.456;2022-09-11T09:19:26;101931.00;;;17.83;100.00
58622;BME280;44389;51.578;5.456;2022-09-11T09:24:27;101926.75;;;18.41;100.00
58622;BME280;44389;51.578;5.456;2022-09-11T09:26:54;101936.53;;;19.22;98.19
58622;BME280;44389;51.578;5.456;2022-09-11T09:29:23;101936.44;;;19.16;94.89
58622;BME280;44389;51.578;5.456;2022-09-11T09:31:52;101933.09;;;19.28;91.35
58622;BME280;44389;51.578;5.456;2022-09-11T09:34:21;101939.75;;;19.03;90.91
58622;BME280;44389;51.578;5.456;2022-09-11T09:36:58;101932.94;;;19.14;91.55
58622;BME280;44389;51.578;5.456;2022-09-11T09:39:25;101930.38;;;19.19;84.55
58622;BME280;44389;51.578;5.456;2022-09-11T09:45:17;101943.34;;;19.94;89.26
58622;BME280;44389;51.578;5.456;2022-09-11T09:47:50;101939.84;;;19.97;82.03
58622;BME280;44389;51.578;5.456;2022-09-11T09:52:41;101942.91;;;20.60;77.95
58622;BME280;44389;51.578;5.456;2022-09-11T09:55:13;101945.81;;;21.31;76.83
58622;BME280;44389;51.578;5.456;2022-09-11T09:57:39;101939.81;;;21.79;71.52
58622;BME280;44389;51.578;5.456;2022-09-11T10:02:40;101946.81;;;22.01;68.79
58622;BME280;44389;51.578;5.456;2022-09-11T10:07:49;101940.59;;;21.47;72.97
58622;BME280;44389;51.578;5.456;2022-09-11T10:10:29;101943.25;;;21.50;75.19
58622;BME280;44389;51.578;5.456;2022-09-11T10:13:00;101947.50;;;20.98;70.92
58622;BME280;44389;51.578;5.456;2022-09-11T10:15:27;101948.44;;;21.28;71.45
58622;BME280;44389;51.578;5.456;2022-09-11T10:18:20;101948.53;;;22.16;68.70
58622;BME280;44389;51.578;5.456;2022-09-11T10:20:44;101950.22;;;22.70;66.15
58622;BME280;44389;51.578;5.456;2022-09-11T10:23:26;101938.00;;;22.46;70.27
58622;BME280;44389;51.578;5.456;2022-09-11T10:25:52;101939.78;;;22.11;67.93
58622;BME280;44389;51.578;5.456;2022-09-11T10:28:26;101945.91;;;21.59;68.57
58622;BME280;44389;51.578;5.456;2022-09-11T10:30:55;101945.03;;;22.10;75.36
58622;BME280;44389;51.578;5.456;2022-09-11T10:33:25;101942.25;;;21.03;70.77
58622;BME280;44389;51.578;5.456;2022-09-11T10:35:54;101943.88;;;20.75;70.92
58622;BME280;44389;51.578;5.456;2022-09-11T10:38:31;101937.63;;;20.51;72.25
58622;BME280;44389;51.578;5.456;2022-09-11T10:44:00;101934.69;;;20.01;76.60
58622;BME280;44389;51.578;5.456;2022-09-11T10:46:29;101938.47;;;20.51;69.97
58622;BME280;44389;51.578;5.456;2022-09-11T10:49:03;101935.34;;;21.41;65.52
58622;BME280;44389;51.578;5.456;2022-09-11T10:51:33;101939.81;;;21.60;63.18
58622;BME280;44389;51.578;5.456;2022-09-11T10:59:26;101944.53;;;20.38;65.81
58622;BME280;44389;51.578;5.456;2022-09-11T11:01:55;101937.38;;;20.14;68.35
58622;BME280;44389;51.578;5.456;2022-09-11T11:04:20;101934.81;;;20.20;68.51
58622;BME280;44389;51.578;5.456;2022-09-11T11:07:15;101940.88;;;20.14;71.20
58622;BME280;44389;51.578;5.456;2022-09-11T11:09:58;101935.03;;;20.60;69.48
58622;BME280;44389;51.578;5.456;2022-09-11T11:21:17;101932.81;;;25.46;52.45
58622;BME280;44389;51.578;5.456;2022-09-11T11:26:41;101938.69;;;25.65;52.38
58622;BME280;44389;51.578;5.456;2022-09-11T11:29:24;101941.94;;;25.83;53.07
58622;BME280;44389;51.578;5.456;2022-09-11T11:32:18;101937.00;;;26.14;54.05
58622;BME280;44389;51.578;5.456;2022-09-11T11:35:03;101930.22;;;26.46;51.13
58622;BME280;44389;51.578;5.456;2022-09-11T11:37:35;101925.72;;;26.51;47.05
58622;BME280;44389;51.578;5.456;2022-09-11T11:42:55;101932.91;;;26.43;46.53
58622;BME280;44389;51.578;5.456;2022-09-11T11:45:29;101925.75;;;26.50;47.01
58622;BME280;44389;51.578;5.456;2022-09-11T11:47:58;101929.16;;;26.56;47.05
58622;BME280;44389;51.578;5.456;2022-09-11T11:50:32;101926.97;;;27.18;45.28
58622;BME280;44389;51.578;5.456;2022-09-11T11:53:03;101922.94;;;27.01;45.01
58622;BME280;44389;51.578;5.456;2022-09-11T11:58:41;101916.03;;;26.94;44.86
58622;BME280;44389;51.578;5.456;2022-09-11T12:01:23;101911.91;;;27.59;47.65
58622;BME280;44389;51.578;5.456;2022-09-11T12:04:08;101907.66;;;27.88;46.03
58622;BME280;44389;51.578;5.456;2022-09-11T12:06:36;101908.38;;;28.89;41.04
58622;BME280;44389;51.578;5.456;2022-09-11T12:09:02;101909.47;;;28.20;42.46
58622;BME280;44389;51.578;5.456;2022-09-11T12:11:31;101909.72;;;28.11;41.94
58622;BME280;44389;51.578;5.456;2022-09-11T12:13:58;101911.38;;;29.36;41.54
58622;BME280;44389;51.578;5.456;2022-09-11T12:16:26;101904.28;;;30.14;36.83
58622;BME280;44389;51.578;5.456;2022-09-11T12:21:41;101907.31;;;30.29;37.01
58622;BME280;44389;51.578;5.456;2022-09-11T12:26:31;101901.63;;;30.14;36.77
58622;BME280;44389;51.578;5.456;2022-09-11T12:34:25;101891.06;;;30.36;40.20
58622;BME280;44389;51.578;5.456;2022-09-11T12:37:30;101883.53;;;30.73;41.64
58622;BME280;44389;51.578;5.456;2022-09-11T12:40:17;101887.47;;;30.63;40.35
58622;BME280;44389;51.578;5.456;2022-09-11T12:45:45;101881.72;;;29.49;38.78
58622;BME280;44389;51.578;5.456;2022-09-11T12:48:16;101878.84;;;29.00;39.20
58622;BME280;44389;51.578;5.456;2022-09-11T12:50:54;101875.19;;;29.59;38.93
58622;BME280;44389;51.578;5.456;2022-09-11T12:53:24;101872.50;;;29.34;40.02
58622;BME280;44389;51.578;5.456;2022-09-11T12:55:57;101873.81;;;29.47;37.42
58622;BME280;44389;51.578;5.456;2022-09-11T12:58:28;101869.66;;;29.40;37.09
58622;BME280;44389;51.578;5.456;2022-09-11T13:03:44;101865.25;;;28.82;37.95
58622;BME280;44389;51.578;5.456;2022-09-11T13:06:13;101862.22;;;28.65;41.05
58622;BME280;44389;51.578;5.456;2022-09-11T13:08:44;101859.53;;;30.02;43.05
58622;BME280;44389;51.578;5.456;2022-09-11T13:13:58;101864.63;;;30.08;35.66
58622;BME280;44389;51.578;5.456;2022-09-11T13:16:28;101849.25;;;29.93;36.10
58622;BME280;44389;51.578;5.456;2022-09-11T13:19:02;101848.47;;;29.64;37.44
58622;BME280;44389;51.578;5.456;2022-09-11T13:21:36;101848.25;;;29.70;36.89
58622;BME280;44389;51.578;5.456;2022-09-11T13:24:02;101846.22;;;29.51;37.81
58622;BME280;44389;51.578;5.456;2022-09-11T13:26:28;101840.72;;;29.02;36.92
58622;BME280;44389;51.578;5.456;2022-09-11T13:28:58;101838.63;;;28.25;39.17
58622;BME280;44389;51.578;5.456;2022-09-11T13:31:32;101837.41;;;27.37;41.51
58622;BME280;44389;51.578;5.456;2022-09-11T13:33:59;101839.63;;;25.92;43.16
58622;BME280;44389;51.578;5.456;2022-09-11T13:36:26;101841.97;;;25.03;45.61
58622;BME280;44389;51.578;5.456;2022-09-11T13:38:57;101839.53;;;24.19;49.13
58622;BME280;44389;51.578;5.456;2022-09-11T13:41:27;101840.25;;;23.45;50.10
58622;BME280;44389;51.578;5.456;2022-09-11T13:43:57;101840.38;;;23.26;53.03
58622;BME280;44389;51.578;5.456;2022-09-11T13:46:25;101837.03;;;23.02;54.44
58622;BME280;44389;51.578;5.456;2022-09-11T13:48:55;101834.63;;;22.58;53.53
58622;BME280;44389;51.578;5.456;2022-09-11T13:51:25;101831.19;;;22.35;56.81
58622;BME280;44389;51.578;5.456;2022-09-11T13:53:59;101823.41;;;22.11;57.68
58622;BME280;44389;51.578;5.456;2022-09-11T13:56:44;101824.31;;;21.96;58.33
58622;BME280;44389;51.578;5.456;2022-09-11T14:02:36;101810.34;;;21.52;57.37
58622;BME280;44389;51.578;5.456;2022-09-11T14:07:29;101797.06;;;22.42;56.18
58622;BME280;44389;51.578;5.456;2022-09-11T14:10:01;101801.94;;;23.07;53.74
58622;BME280;44389;51.578;5.456;2022-09-11T14:12:29;101791.69;;;23.80;51.67
58622;BME280;44389;51.578;5.456;2022-09-11T14:14:57;101789.41;;;24.27;48.73
58622;BME280;44389;51.578;5.456;2022-09-11T14:17:24;101789.53;;;24.17;50.91
58622;BME280;44389;51.578;5.456;2022-09-11T14:19:51;101785.47;;;23.86;50.95
58622;BME280;44389;51.578;5.456;2022-09-11T14:22:25;101792.19;;;23.24;52.00
58622;BME280;44389;51.578;5.456;2022-09-11T14:25:19;101787.94;;;23.01;53.94
58622;BME280;44389;51.578;5.456;2022-09-11T14:27:45;101782.16;;;22.47;54.85
58622;BME280;44389;51.578;5.456;2022-09-11T14:30:31;101783.94;;;22.42;56.83
58622;BME280;44389;51.578;5.456;2022-09-11T14:35:37;101784.97;;;21.88;57.52
58622;BME280;44389;51.578;5.456;2022-09-11T14:38:02;101786.72;;;21.89;57.93
58622;BME280;44389;51.578;5.456;2022-09-11T14:40:28;101785.88;;;21.82;57.03
58622;BME280;44389;51.578;5.456;2022-09-11T14:42:53;101778.03;;;21.56;57.49
58622;BME280;44389;51.578;5.456;2022-09-11T14:45:20;101782.38;;;21.49;58.09
58622;BME280;44389;51.578;5.456;2022-09-11T14:47:47;101780.63;;;21.44;57.53